Time;durP1;ratioP1;P1;durP2;ratioP2;P2;SDS_P1;SDS_P2;PMS_P1;PMS_P2;Temp;Humidity;BMP_temperature;BMP_pressure;BME280_temperature;BME280_humidity;BME280_pressure;Samples;Min_cycle;Max_cycle;Signal;HPM_P1;HPM_P2
2023/06/06 00:01:29;;;;;;;4.03;3.47;;;25.00;54.20;;;;;;5072094;28;20542;-64
2023/06/06 00:03:57;;;;;;;3.78;3.33;;;25.00;54.20;;;;;;5071649;28;20052;-64
2023/06/06 00:06:27;;;;;;;4.78;3.20;;;25.00;54.20;;;;;;5071143;28;20050;-64
2023/06/06 00:08:54;;;;;;;4.43;3.25;;;25.00;54.20;;;;;;5076518;28;20052;-64
2023/06/06 00:11:22;;;;;;;3.90;3.30;;;25.00;54.20;;;;;;5076102;28;20094;-64
2023/06/06 00:13:52;;;;;;;4.40;3.33;;;25.00;54.20;;;;;;5076501;28;20066;-64
2023/06/06 00:16:19;;;;;;;;;;;25.00;54.20;;;;;;5076489;28;20049;-64
2023/06/06 00:18:46;;;;;;;5.15;3.13;;;25.00;54.20;;;;;;5076543;28;19928;-64
2023/06/06 00:21:13;;;;;;;4.47;3.50;;;25.00;54.20;;;;;;5075111;28;20088;-64
2023/06/06 00:23:40;;;;;;;3.97;2.75;;;25.00;54.20;;;;;;5075961;28;20205;-64
2023/06/06 00:26:07;;;;;;;6.00;3.65;;;25.00;54.20;;;;;;5075449;28;20507;-64
2023/06/06 00:28:35;;;;;;;6.20;2.97;;;25.00;54.20;;;;;;5076169;28;20056;-65
2023/06/06 00:31:02;;;;;;;3.72;2.85;;;25.00;54.20;;;;;;5074734;28;20447;-65
2023/06/06 00:33:29;;;;;;;5.68;2.95;;;25.00;54.20;;;;;;5075807;28;20515;-65
2023/06/06 00:35:56;;;;;;;5.78;3.38;;;25.00;54.20;;;;;;5075575;28;20573;-65
2023/06/06 00:38:23;;;;;;;3.78;3.13;;;25.00;54.70;;;;;;5076242;28;20053;-65
2023/06/06 00:40:51;;;;;;;3.50;3.20;;;25.00;54.20;;;;;;5074537;28;20283;-65
2023/06/06 00:43:18;;;;;;;3.53;3.05;;;25.00;54.20;;;;;;5075229;28;20050;-65
2023/06/06 00:45:45;;;;;;;3.47;3.17;;;25.00;54.20;;;;;;5075641;28;20409;-65
2023/06/06 00:48:12;;;;;;;4.47;3.05;;;25.00;54.20;;;;;;5076004;28;20094;-65
2023/06/06 00:50:42;;;;;;;4.72;3.33;;;25.00;54.20;;;;;;5074840;28;20455;-66
2023/06/06 00:53:10;;;;;;;3.28;2.80;;;25.00;54.20;;;;;;5074522;28;20053;-65
2023/06/06 00:55:39;;;;;;;3.28;2.72;;;25.00;54.20;;;;;;5074876;28;20048;-65
2023/06/06 00:58:08;;;;;;;2.97;2.63;;;25.00;54.20;;;;;;5074838;28;20101;-65
2023/06/06 01:00:38;;;;;;;4.07;3.22;;;25.00;54.20;;;;;;5073832;28;20504;-65
2023/06/06 01:03:09;;;;;;;4.07;3.50;;;25.00;54.10;;;;;;5075104;28;20102;-65
2023/06/06 01:05:37;;;;;;;3.67;2.80;;;25.00;54.10;;;;;;5073124;28;20055;-65
2023/06/06 01:08:06;;;;;;;4.82;3.28;;;25.10;54.20;;;;;;5075537;28;20053;-65
2023/06/06 01:10:39;;;;;;;3.05;2.60;;;25.00;54.10;;;;;;5075379;28;20470;-65
2023/06/06 01:13:26;;;;;;;3.50;3.10;;;25.00;54.00;;;;;;5075534;28;20049;-65
2023/06/06 01:16:09;;;;;;;3.67;2.80;;;25.00;54.00;;;;;;5074005;28;20516;-65
2023/06/06 01:18:37;;;;;;;3.35;2.80;;;25.00;54.00;;;;;;5073904;28;20041;-65
2023/06/06 01:21:05;;;;;;;3.30;3.00;;;25.10;54.10;;;;;;5074236;28;20493;-65
2023/06/06 01:23:34;;;;;;;3.05;2.80;;;25.00;54.00;;;;;;5075097;28;20135;-65
2023/06/06 01:26:04;;;;;;;3.08;2.78;;;25.00;54.00;;;;;;5074728;28;20175;-65
2023/06/06 01:28:31;;;;;;;3.33;2.40;;;25.10;54.00;;;;;;5074270;28;20102;-65
2023/06/06 01:30:59;;;;;;;3.60;2.85;;;25.00;54.00;;;;;;5074999;28;20045;-65
2023/06/06 01:33:40;;;;;;;3.30;2.80;;;25.10;54.00;;;;;;5073867;28;20468;-65
2023/06/06 01:36:23;;;;;;;3.78;2.67;;;25.00;54.00;;;;;;5074760;28;20076;-65
2023/06/06 01:38:56;;;;;;;3.25;2.95;;;25.00;54.00;;;;;;5073325;28;20041;-66
2023/06/06 01:41:24;;;;;;;3.75;3.03;;;25.10;54.10;;;;;;5073823;28;20110;-65
2023/06/06 01:43:54;;;;;;;3.05;2.75;;;25.00;54.00;;;;;;5073878;28;20091;-65
2023/06/06 01:46:25;;;;;;;3.67;2.85;;;25.00;54.00;;;;;;5072438;28;20102;-65
2023/06/06 01:48:54;;;;;;;3.25;2.95;;;25.00;54.20;;;;;;5073719;28;20143;-65
2023/06/06 01:51:24;;;;;;;3.00;2.67;;;25.00;54.10;;;;;;5074257;28;20044;-65
2023/06/06 01:53:52;;;;;;;;;;;25.00;54.00;;;;;;5074849;28;20049;-66
2023/06/06 01:56:21;;;;;;;3.08;2.78;;;25.00;54.10;;;;;;5075085;28;20351;-65
2023/06/06 01:58:48;;;;;;;3.17;2.85;;;25.00;54.10;;;;;;5075040;28;20052;-65
2023/06/06 02:01:16;;;;;;;2.97;2.60;;;25.00;54.10;;;;;;5074193;28;20121;-65
2023/06/06 02:03:45;;;;;;;3.35;2.85;;;25.00;54.10;;;;;;5074411;28;20052;-65
2023/06/06 02:06:13;;;;;;;3.45;2.90;;;25.00;54.10;;;;;;5074570;28;20056;-65
2023/06/06 02:08:40;;;;;;;2.80;2.58;;;25.00;54.10;;;;;;5073256;28;20135;-65
2023/06/06 02:11:07;;;;;;;2.95;2.70;;;25.00;54.10;;;;;;5074684;28;20044;-65
2023/06/06 02:13:34;;;;;;;5.20;3.40;;;25.00;54.10;;;;;;5073826;28;20542;-65
2023/06/06 02:16:02;;;;;;;3.20;2.58;;;24.90;54.10;;;;;;5072562;28;20070;-65
2023/06/06 02:18:30;;;;;;;2.92;2.60;;;25.00;54.10;;;;;;5061127;28;20064;-65
2023/06/06 02:20:57;;;;;;;3.03;2.72;;;24.90;54.10;;;;;;5053121;28;20053;-65
2023/06/06 02:23:24;;;;;;;3.17;2.88;;;24.90;54.00;;;;;;5052840;28;20053;-65
2023/06/06 02:25:53;;;;;;;3.22;2.88;;;25.00;54.10;;;;;;5053309;28;20114;-65
2023/06/06 02:28:20;;;;;;;3.13;2.50;;;25.00;54.10;;;;;;5052486;28;20087;-65
2023/06/06 02:30:47;;;;;;;2.85;2.50;;;25.00;54.10;;;;;;5052133;28;20139;-65
2023/06/06 02:33:16;;;;;;;2.72;2.38;;;24.90;54.00;;;;;;5051162;28;20140;-65
2023/06/06 02:35:43;;;;;;;2.88;2.60;;;24.90;54.60;;;;;;5053259;28;20072;-65
2023/06/06 02:38:10;;;;;;;3.10;2.75;;;25.00;54.10;;;;;;5053505;28;20185;-65
2023/06/06 02:40:38;;;;;;;3.08;2.47;;;24.90;54.00;;;;;;5052803;28;20159;-65
2023/06/06 02:43:05;;;;;;;2.85;2.58;;;25.00;54.10;;;;;;5053000;28;20107;-65
2023/06/06 02:45:32;;;;;;;4.18;2.70;;;25.00;54.10;;;;;;5052080;28;20132;-65
2023/06/06 02:48:00;;;;;;;6.10;2.72;;;25.00;54.10;;;;;;5052651;28;20049;-65
2023/06/06 02:50:28;;;;;;;2.75;2.50;;;24.90;54.00;;;;;;5052669;28;20041;-65
2023/06/06 02:52:55;;;;;;;2.97;2.53;;;24.90;54.00;;;;;;5053134;28;20437;-65
2023/06/06 02:55:22;;;;;;;3.35;2.60;;;25.00;54.10;;;;;;5051417;28;20040;-65
2023/06/06 02:57:50;;;;;;;3.28;2.20;;;24.90;54.10;;;;;;5051743;28;20471;-65
2023/06/06 03:00:17;;;;;;;2.78;2.58;;;24.90;54.00;;;;;;5052869;28;20485;-65
2023/06/06 03:02:45;;;;;;;3.80;2.85;;;25.00;54.10;;;;;;5053577;28;20060;-65
2023/06/06 03:05:13;;;;;;;4.47;2.67;;;25.00;54.10;;;;;;5052845;28;20478;-65
2023/06/06 03:07:40;;;;;;;2.60;2.40;;;24.90;54.10;;;;;;5052211;28;20482;-65
2023/06/06 03:10:08;;;;;;;3.00;2.75;;;24.90;54.10;;;;;;5052362;28;20053;-65
2023/06/06 03:12:35;;;;;;;3.28;2.40;;;24.90;54.00;;;;;;5052466;28;20045;-65
2023/06/06 03:15:03;;;;;;;2.42;2.22;;;25.00;54.10;;;;;;5051708;28;20053;-65
2023/06/06 03:17:30;;;;;;;2.95;2.58;;;25.00;54.00;;;;;;5052148;28;20052;-65
2023/06/06 03:19:57;;;;;;;2.45;2.25;;;25.00;54.00;;;;;;5052483;28;20060;-65
2023/06/06 03:22:25;;;;;;;3.72;2.67;;;25.00;54.00;;;;;;5053133;28;20052;-65
2023/06/06 03:24:52;;;;;;;3.05;2.75;;;25.00;54.00;;;;;;5052002;28;20049;-65
2023/06/06 03:27:19;;;;;;;2.25;2.05;;;25.00;54.00;;;;;;5050806;28;20496;-65
2023/06/06 03:29:46;;;;;;;3.08;2.78;;;25.00;54.00;;;;;;5056833;28;20048;-65
2023/06/06 03:32:13;;;;;;;2.85;2.65;;;25.00;53.90;;;;;;5072604;28;20059;-65
2023/06/06 03:34:41;;;;;;;3.00;2.63;;;25.00;53.90;;;;;;5072490;28;20052;-65
2023/06/06 03:37:08;;;;;;;3.67;2.60;;;25.00;53.90;;;;;;5071692;28;20045;-65
2023/06/06 03:39:35;;;;;;;3.03;2.50;;;25.00;53.90;;;;;;5070326;28;20056;-65
2023/06/06 03:42:06;;;;;;;2.63;2.40;;;25.00;53.90;;;;;;5071754;28;20084;-67
2023/06/06 03:44:33;;;;;;;4.05;2.50;;;25.00;53.80;;;;;;5072487;28;20056;-65
2023/06/06 03:47:00;;;;;;;5.28;2.92;;;25.00;53.80;;;;;;5071526;28;20076;-65
2023/06/06 03:49:28;;;;;;;2.80;2.60;;;25.00;53.80;;;;;;5078206;28;20091;-65
2023/06/06 03:51:55;;;;;;;2.95;2.65;;;25.00;53.80;;;;;;5072577;28;20398;-65
2023/06/06 03:54:22;;;;;;;2.88;2.60;;;25.00;53.80;;;;;;5071998;28;20055;-65
2023/06/06 03:56:50;;;;;;;2.65;2.40;;;25.00;53.80;;;;;;5071987;28;20053;-65
2023/06/06 03:59:17;;;;;;;2.67;2.47;;;25.00;53.80;;;;;;5071362;28;20040;-65
2023/06/06 04:01:44;;;;;;;2.70;2.50;;;25.00;53.70;;;;;;5078894;28;20501;-65
2023/06/06 04:04:15;;;;;;;2.67;2.42;;;25.00;53.80;;;;;;5091004;28;20040;-65
2023/06/06 04:06:42;;;;;;;3.40;2.65;;;25.00;53.80;;;;;;5069894;28;20516;-65
2023/06/06 04:09:13;;;;;;;2.42;2.17;;;25.00;53.70;;;;;;5070394;28;20048;-65
2023/06/06 04:11:40;;;;;;;5.72;2.83;;;25.00;53.80;;;;;;5071547;28;20406;-65
2023/06/06 04:14:07;;;;;;;2.95;2.25;;;25.00;53.70;;;;;;5071577;28;20056;-65
2023/06/06 04:16:35;;;;;;;2.92;2.22;;;25.00;53.70;;;;;;5071397;28;20048;-65
2023/06/06 04:19:04;;;;;;;2.88;2.30;;;25.00;53.70;;;;;;5071005;28;20505;-65
2023/06/06 04:21:32;;;;;;;2.88;2.65;;;25.10;53.80;;;;;;5072371;28;20049;-65
2023/06/06 04:24:00;;;;;;;2.35;2.15;;;25.00;53.70;;;;;;5071461;28;20451;-65
2023/06/06 04:26:32;;;;;;;2.47;2.28;;;25.00;53.70;;;;;;5070838;28;20094;-65
2023/06/06 04:28:59;;;;;;;2.85;2.55;;;25.00;53.70;;;;;;5071304;28;20045;-65
2023/06/06 04:31:31;;;;;;;2.50;2.30;;;25.00;53.70;;;;;;5071402;28;20044;-65
2023/06/06 04:34:01;;;;;;;2.83;2.60;;;25.00;53.70;;;;;;5072396;28;20451;-65
2023/06/06 04:36:28;;;;;;;2.90;2.70;;;25.00;53.70;;;;;;5069811;28;20045;-65
2023/06/06 04:39:00;;;;;;;3.78;2.97;;;25.00;53.90;;;;;;5069080;28;20049;-65
2023/06/06 04:41:31;;;;;;;3.08;2.53;;;24.90;54.10;;;;;;5071812;28;20090;-65
2023/06/06 04:44:20;;;;;;;;;;;24.70;54.40;;;;;;5071055;28;20051;-65
2023/06/06 04:46:48;;;;;;;2.70;2.28;;;24.50;54.90;;;;;;5071240;28;19928;-65
2023/06/06 04:49:15;;;;;;;4.10;2.95;;;24.30;54.80;;;;;;5068448;28;20058;-65
2023/06/06 04:51:44;;;;;;;2.63;2.42;;;24.00;54.40;;;;;;5069821;28;20131;-65
2023/06/06 04:54:12;;;;;;;2.92;2.63;;;23.70;54.10;;;;;;5068757;28;20057;-65
2023/06/06 04:56:40;;;;;;;3.58;2.70;;;23.30;54.10;;;;;;5055922;28;20050;-65
2023/06/06 04:59:08;;;;;;;3.78;2.55;;;23.00;54.30;;;;;;5054524;28;20095;-65
2023/06/06 05:01:36;;;;;;;3.38;2.97;;;22.60;54.70;;;;;;5053054;28;20055;-65
2023/06/06 05:04:05;;;;;;;3.88;2.60;;;22.30;55.70;;;;;;5054143;28;20378;-65
2023/06/06 05:06:34;;;;;;;3.15;2.85;;;22.00;56.50;;;;;;5068912;28;20044;-65
2023/06/06 05:09:04;;;;;;;3.08;2.72;;;21.80;56.50;;;;;;5067292;28;20489;-65
2023/06/06 05:11:32;;;;;;;3.45;3.15;;;21.60;57.20;;;;;;5067918;28;20047;-65
2023/06/06 05:13:59;;;;;;;2.92;2.63;;;21.40;58.00;;;;;;5049176;28;20059;-69
2023/06/06 05:16:27;;;;;;;3.33;3.00;;;21.30;57.80;;;;;;5062298;28;20090;-67
2023/06/06 05:18:54;;;;;;;3.33;3.00;;;21.10;57.50;;;;;;5053191;28;20501;-69
2023/06/06 05:21:22;;;;;;;3.33;3.03;;;21.00;59.20;;;;;;5064491;28;20054;-72
2023/06/06 05:23:49;;;;;;;4.68;3.53;;;20.90;59.00;;;;;;5067338;28;20532;-70
2023/06/06 05:26:16;;;;;;;3.65;3.35;;;20.80;58.00;;;;;;5066412;28;20044;-69
2023/06/06 05:28:44;;;;;;;4.60;3.50;;;20.70;59.00;;;;;;5067857;28;20546;-69
2023/06/06 05:31:16;;;;;;;3.40;3.08;;;20.60;59.80;;;;;;5063408;28;20173;-66
2023/06/06 05:33:43;;;;;;;3.20;2.90;;;20.50;59.00;;;;;;5059445;28;20423;-69
2023/06/06 05:36:11;;;;;;;3.47;3.17;;;20.40;58.80;;;;;;5069397;28;20040;-69
2023/06/06 05:38:38;;;;;;;3.97;3.50;;;20.30;60.00;;;;;;5063945;28;20094;-67
2023/06/06 05:41:05;;;;;;;4.75;3.15;;;20.20;59.90;;;;;;5064030;28;20396;-66
2023/06/06 05:43:33;;;;;;;3.08;2.78;;;20.20;59.40;;;;;;5067628;28;20136;-65
2023/06/06 05:46:01;;;;;;;3.83;3.53;;;20.10;60.40;;;;;;5067060;28;20048;-67
2023/06/06 05:48:29;;;;;;;3.50;2.95;;;20.10;61.00;;;;;;5065160;28;20492;-68
2023/06/06 05:50:57;;;;;;;3.17;2.97;;;20.10;59.80;;;;;;5067147;28;20463;-69
2023/06/06 05:53:26;;;;;;;3.60;3.30;;;20.00;60.40;;;;;;5065243;28;20439;-70
2023/06/06 05:55:53;;;;;;;3.67;3.10;;;19.90;61.50;;;;;;5059038;28;20055;-70
2023/06/06 05:58:20;;;;;;;3.72;3.35;;;19.90;60.70;;;;;;5059179;28;20136;-68
2023/06/06 06:00:47;;;;;;;3.88;3.28;;;19.90;60.20;;;;;;5041527;28;20037;-71
2023/06/06 06:03:15;;;;;;;4.97;4.28;;;19.90;61.30;;;;;;5064877;28;20669;-68
2023/06/06 06:05:42;;;;;;;4.65;3.90;;;19.90;61.60;;;;;;5059877;28;20073;-66
2023/06/06 06:08:10;;;;;;;6.78;4.00;;;19.90;60.30;;;;;;5066067;28;20382;-66
2023/06/06 06:10:38;;;;;;;3.97;3.47;;;19.90;60.50;;;;;;5064225;28;20040;-66
2023/06/06 06:13:06;;;;;;;9.30;3.65;;;19.90;61.20;;;;;;5065166;28;20071;-67
2023/06/06 06:15:35;;;;;;;5.80;4.13;;;19.80;59.60;;;;;;5067729;28;20040;-68
2023/06/06 06:18:06;;;;;;;3.50;3.20;;;19.80;60.30;;;;;;5065087;28;20048;-73
2023/06/06 06:20:33;;;;;;;5.10;3.63;;;19.80;61.80;;;;;;5063801;28;20040;-68
2023/06/06 06:23:01;;;;;;;5.07;3.97;;;19.70;61.50;;;;;;5065267;28;20052;-69
2023/06/06 06:25:28;;;;;;;9.52;5.32;;;19.70;59.80;;;;;;5066261;28;20397;-66
2023/06/06 06:27:56;;;;;;;5.90;3.80;;;19.60;60.90;;;;;;5067782;28;20044;-68
2023/06/06 06:30:23;;;;;;;10.07;3.78;;;19.60;62.20;;;;;;5064580;28;20084;-66
2023/06/06 06:32:51;;;;;;;4.07;3.35;;;19.50;60.60;;;;;;5067879;28;20056;-68
2023/06/06 06:35:19;;;;;;;4.40;3.70;;;19.40;61.10;;;;;;5068351;28;20456;-68
2023/06/06 06:37:47;;;;;;;4.43;3.78;;;19.30;62.30;;;;;;5062145;28;20056;-70
2023/06/06 06:40:15;;;;;;;7.55;4.05;;;19.20;61.80;;;;;;5063025;28;20048;-69
2023/06/06 06:42:43;;;;;;;5.30;4.05;;;19.10;61.70;;;;;;5066060;28;20126;-70
2023/06/06 06:45:13;;;;;;;4.07;3.78;;;19.10;63.40;;;;;;5065159;28;20044;-67
2023/06/06 06:47:41;;;;;;;5.72;4.00;;;19.10;62.70;;;;;;5065547;28;20500;-68
2023/06/06 06:50:10;;;;;;;7.80;4.40;;;19.10;61.90;;;;;;5062318;28;20052;-70
2023/06/06 06:52:38;;;;;;;5.00;3.90;;;19.00;62.90;;;;;;5061404;28;20037;-69
2023/06/06 06:55:07;;;;;;;4.80;4.13;;;19.00;64.30;;;;;;5065221;28;20485;-69
2023/06/06 06:57:38;;;;;;;6.20;3.70;;;19.00;64.00;;;;;;5066158;28;20040;-70
2023/06/06 07:00:14;;;;;;;5.78;4.88;;;19.00;63.00;;;;;;5062490;28;20076;-67
2023/06/06 07:02:46;;;;;;;6.65;4.95;;;19.00;63.20;;;;;;5060987;28;20072;-69
2023/06/06 07:05:17;;;;;;;6.32;4.05;;;19.00;63.80;;;;;;5060556;28;20056;-69
2023/06/06 07:07:47;;;;;;;19.40;4.93;;;19.00;62.40;;;;;;5060233;28;20041;-68
2023/06/06 07:10:15;;;;;;;4.55;4.20;;;19.00;63.10;;;;;;5063442;28;20098;-71
2023/06/06 07:12:47;;;;;;;6.38;4.43;;;19.00;62.60;;;;;;5066293;28;20604;-69
2023/06/06 07:15:15;;;;;;;4.82;4.30;;;19.00;63.30;;;;;;5063704;28;20266;-66
2023/06/06 07:17:46;;;;;;;4.82;4.18;;;19.10;63.50;;;;;;5064268;28;20040;-67
2023/06/06 07:20:13;;;;;;;6.43;4.30;;;19.10;63.90;;;;;;5070670;28;20051;-65
2023/06/06 07:22:41;;;;;;;6.00;4.35;;;19.10;61.90;;;;;;5063151;28;20473;-67
2023/06/06 07:25:08;;;;;;;6.75;4.63;;;19.10;62.90;;;;;;5061858;28;20049;-66
2023/06/06 07:27:37;;;;;;;5.07;3.90;;;19.20;63.80;;;;;;5063031;28;20090;-67
2023/06/06 07:30:12;;;;;;;8.90;3.95;;;19.20;63.20;;;;;;5060229;28;20052;-66
2023/06/06 07:32:42;;;;;;;4.72;4.22;;;19.30;62.10;;;;;;5062990;28;20079;-66
2023/06/06 07:35:15;;;;;;;5.70;4.10;;;19.30;61.70;;;;;;5064943;28;20055;-69
2023/06/06 07:37:43;;;;;;;5.57;3.90;;;19.30;62.90;;;;;;5060065;28;20098;-67
2023/06/06 07:40:11;;;;;;;5.43;4.13;;;19.30;62.30;;;;;;5063532;28;20040;-67
2023/06/06 07:42:42;;;;;;;4.78;4.30;;;19.40;62.60;;;;;;5059409;28;20078;-66
2023/06/06 07:45:10;;;;;;;4.60;4.13;;;19.40;61.20;;;;;;5062517;28;20080;-66
2023/06/06 07:47:39;;;;;;;3.75;3.45;;;19.40;62.40;;;;;;5063912;28;20041;-67
2023/06/06 07:50:07;;;;;;;4.13;3.72;;;19.30;63.30;;;;;;5061784;28;20055;-66
2023/06/06 07:52:35;;;;;;;4.03;3.50;;;19.40;63.50;;;;;;5059151;28;20635;-65
2023/06/06 07:55:05;;;;;;;4.63;3.75;;;19.40;60.60;;;;;;5067974;28;20048;-66
2023/06/06 07:57:33;;;;;;;5.32;4.22;;;19.40;60.50;;;;;;5065728;28;20079;-68
2023/06/06 08:00:10;;;;;;;4.97;3.50;;;19.40;62.90;;;;;;5065411;28;20195;-69
2023/06/06 08:02:39;;;;;;;4.43;4.03;;;19.40;63.00;;;;;;5058407;28;20037;-68
2023/06/06 08:05:08;;;;;;;5.38;4.28;;;19.40;61.90;;;;;;5064171;28;20332;-68
2023/06/06 08:07:38;;;;;;;4.78;4.18;;;19.40;62.10;;;;;;5068636;28;20048;-66
2023/06/06 08:10:07;;;;;;;4.05;3.65;;;19.40;63.90;;;;;;5063315;28;20048;-66
2023/06/06 08:12:35;;;;;;;6.18;3.88;;;19.50;62.00;;;;;;5063727;28;20328;-63
2023/06/06 08:15:04;;;;;;;6.50;4.28;;;19.40;62.10;;;;;;5062708;28;20051;-66
2023/06/06 08:17:31;;;;;;;7.03;4.03;;;19.40;63.60;;;;;;5062037;28;20052;-67
2023/06/06 08:19:58;;;;;;;4.93;4.18;;;19.40;62.00;;;;;;5063391;28;20048;-68
2023/06/06 08:22:29;;;;;;;6.50;3.90;;;19.40;62.00;;;;;;5059402;28;20102;-70
2023/06/06 08:24:56;;;;;;;;;;;19.40;63.30;;;;;;5060359;28;20071;-68
2023/06/06 08:27:23;;;;;;;4.72;3.80;;;19.40;63.60;;;;;;5062741;28;19972;-64
2023/06/06 08:29:51;;;;;;;4.35;3.95;;;19.40;62.30;;;;;;5067073;28;20095;-64
2023/06/06 08:32:19;;;;;;;6.05;3.78;;;19.40;61.80;;;;;;5067459;28;20048;-63
2023/06/06 08:34:46;;;;;;;5.22;4.22;;;19.40;63.30;;;;;;5070935;28;20053;-65
2023/06/06 08:37:14;;;;;;;6.28;4.13;;;19.40;62.80;;;;;;5069070;28;20044;-64
2023/06/06 08:39:41;;;;;;;4.93;3.90;;;19.40;62.00;;;;;;5065585;28;20919;-64
2023/06/06 08:42:11;;;;;;;6.50;3.90;;;19.40;62.10;;;;;;5065280;28;20382;-65
2023/06/06 08:44:39;;;;;;;4.88;4.10;;;19.40;63.00;;;;;;5066206;28;20040;-64
2023/06/06 08:47:08;;;;;;;4.40;3.92;;;19.40;62.50;;;;;;5066620;28;20396;-66
2023/06/06 08:49:37;;;;;;;5.25;4.40;;;19.40;62.50;;;;;;5064392;28;20064;-65
2023/06/06 08:52:06;;;;;;;6.68;4.03;;;19.40;62.60;;;;;;5062440;28;20139;-65
2023/06/06 08:54:33;;;;;;;6.43;4.45;;;19.40;61.50;;;;;;5064579;28;20051;-64
2023/06/06 08:57:08;;;;;;;8.23;5.38;;;19.40;62.50;;;;;;5063945;28;20075;-65
2023/06/06 08:59:37;;;;;;;7.88;4.28;;;19.40;63.50;;;;;;5062145;28;20048;-65
2023/06/06 09:02:09;;;;;;;7.60;4.70;;;19.50;62.90;;;;;;5065972;28;20051;-64
2023/06/06 09:04:38;;;;;;;6.70;4.88;;;19.40;61.80;;;;;;5066407;28;20079;-70
2023/06/06 09:07:12;;;;;;;5.35;4.50;;;19.40;63.20;;;;;;5069527;28;20045;-65
2023/06/06 09:09:42;;;;;;;8.10;4.50;;;19.50;63.00;;;;;;5066843;28;20084;-64
2023/06/06 09:12:10;;;;;;;6.83;4.80;;;19.50;62.50;;;;;;5068565;28;20044;-64
2023/06/06 09:14:37;;;;;;;7.07;4.85;;;19.50;62.30;;;;;;5066227;28;20056;-67
2023/06/06 09:17:05;;;;;;;5.68;4.85;;;19.50;62.40;;;;;;5062752;28;20117;-66
2023/06/06 09:19:33;;;;;;;7.30;4.53;;;19.60;62.10;;;;;;5066658;28;20052;-66
2023/06/06 09:22:07;;;;;;;6.68;4.97;;;19.50;62.20;;;;;;5063591;28;20098;-65
2023/06/06 09:24:42;;;;;;;9.80;5.32;;;19.60;61.90;;;;;;5068397;28;20045;-65
2023/06/06 09:27:27;;;;;;;10.43;4.85;;;19.60;60.10;;;;;;5068333;28;20131;-64
2023/06/06 09:29:54;;;;;;;8.23;5.13;;;19.60;61.10;;;;;;5066209;28;20048;-66
2023/06/06 09:32:28;;;;;;;6.13;4.88;;;19.60;61.20;;;;;;5061043;28;20048;-65
2023/06/06 09:35:03;;;;;;;5.97;4.90;;;19.70;61.20;;;;;;5064101;28;20048;-66
2023/06/06 09:37:31;;;;;;;6.07;4.75;;;19.70;61.40;;;;;;5061202;28;20048;-65
2023/06/06 09:40:11;;;;;;;5.93;4.70;;;19.60;61.60;;;;;;5063288;28;20548;-66
2023/06/06 09:42:42;;;;;;;;;;;19.70;61.90;;;;;;5069985;28;20037;-65
2023/06/06 09:45:20;;;;;;;6.10;5.20;;;19.70;61.00;;;;;;5065171;28;19924;-68
2023/06/06 09:47:48;;;;;;;7.85;4.75;;;19.80;61.10;;;;;;5063731;28;20099;-68
2023/06/06 09:50:18;;;;;;;6.00;4.72;;;19.80;61.50;;;;;;5064367;28;20052;-66
2023/06/06 09:52:51;;;;;;;7.88;5.25;;;19.80;62.30;;;;;;5065402;28;20091;-66
2023/06/06 09:55:19;;;;;;;6.05;5.10;;;19.80;61.70;;;;;;5066422;28;20048;-67
2023/06/06 09:57:49;;;;;;;7.47;4.97;;;19.90;61.50;;;;;;5067356;28;20086;-67
2023/06/06 10:00:17;;;;;;;8.27;5.15;;;19.90;62.70;;;;;;5069990;28;20084;-67
2023/06/06 10:02:47;;;;;;;8.60;4.90;;;20.00;63.20;;;;;;5069002;28;20127;-67
2023/06/06 10:05:16;;;;;;;6.05;5.00;;;20.10;62.40;;;;;;5070259;28;20050;-70
2023/06/06 10:07:45;;;;;;;6.13;4.40;;;20.20;62.00;;;;;;5067988;28;20067;-67
2023/06/06 10:10:15;;;;;;;8.13;4.55;;;20.30;62.50;;;;;;5067387;28;20044;-71
2023/06/06 10:12:44;;;;;;;8.75;4.55;;;20.40;61.30;;;;;;5068988;28;20040;-68
2023/06/06 10:15:12;;;;;;;12.30;5.03;;;20.40;61.60;;;;;;5063237;28;20206;-67
2023/06/06 10:17:41;;;;;;;6.57;4.47;;;20.40;61.50;;;;;;5061157;28;20044;-68
2023/06/06 10:20:11;;;;;;;6.07;4.28;;;20.50;61.60;;;;;;5067469;28;20461;-68
2023/06/06 10:22:41;;;;;;;5.03;4.45;;;20.60;61.30;;;;;;5066256;28;20078;-69
2023/06/06 10:25:12;;;;;;;6.28;4.30;;;20.60;61.40;;;;;;5062569;28;20143;-66
2023/06/06 10:28:02;;;;;;;6.57;4.00;;;20.70;60.80;;;;;;5064348;28;20094;-65
2023/06/06 10:30:51;;;;;;;8.02;4.72;;;20.70;60.60;;;;;;5068955;28;20067;-69
2023/06/06 10:33:33;;;;;;;4.47;4.03;;;20.70;60.10;;;;;;5069056;28;20052;-67
2023/06/06 10:36:03;;;;;;;6.43;4.78;;;20.70;61.30;;;;;;5059612;28;20049;-69
2023/06/06 10:38:34;;;;;;;5.50;4.63;;;20.70;61.60;;;;;;5066766;28;20127;-69
2023/06/06 10:41:16;;;;;;;8.88;5.53;;;20.80;61.40;;;;;;5062398;28;20062;-70
2023/06/06 10:43:51;;;;;;;5.93;4.50;;;20.80;61.60;;;;;;5072601;28;20101;-65
2023/06/06 10:46:18;;;;;;;6.47;5.47;;;20.80;61.70;;;;;;5067607;28;20045;-71
2023/06/06 10:48:53;;;;;;;8.93;5.15;;;20.70;62.50;;;;;;5064048;28;20048;-66
2023/06/06 10:51:35;;;;;;;7.95;4.65;;;20.70;62.50;;;;;;5060768;28;20061;-68
2023/06/06 10:54:21;;;;;;;4.85;4.45;;;20.70;62.00;;;;;;5064785;28;20411;-67
2023/06/06 10:56:55;;;;;;;8.05;5.22;;;20.70;62.30;;;;;;5063315;28;20048;-70
2023/06/06 10:59:27;;;;;;;6.00;5.03;;;20.70;61.60;;;;;;5061017;28;20135;-68
2023/06/06 11:01:55;;;;;;;5.78;5.20;;;20.70;62.70;;;;;;5066161;28;20062;-70
2023/06/06 11:04:25;;;;;;;6.28;5.10;;;20.70;62.30;;;;;;5065295;28;20094;-68
2023/06/06 11:06:58;;;;;;;6.40;5.20;;;20.70;61.90;;;;;;5063799;28;20041;-65
2023/06/06 11:09:30;;;;;;;6.00;4.75;;;20.70;62.20;;;;;;5066546;28;20044;-65
2023/06/06 11:12:28;;;;;;;7.13;5.75;;;20.70;62.00;;;;;;5067995;28;20067;-65
2023/06/06 11:15:04;;;;;;;5.13;4.43;;;20.70;61.40;;;;;;5068898;28;20052;-66
2023/06/06 11:17:47;;;;;;;6.35;5.13;;;20.70;61.90;;;;;;5068500;28;20400;-67
2023/06/06 11:20:19;;;;;;;8.10;5.32;;;20.80;62.00;;;;;;5064956;28;20484;-66
2023/06/06 11:23:04;;;;;;;5.82;4.88;;;20.80;61.40;;;;;;5066269;28;20057;-67
2023/06/06 11:25:35;;;;;;;6.88;4.68;;;20.80;61.50;;;;;;5064598;28;20044;-66
2023/06/06 11:28:03;;;;;;;5.00;4.35;;;20.80;61.70;;;;;;5064606;28;20040;-65
2023/06/06 11:30:32;;;;;;;6.10;4.30;;;20.90;61.60;;;;;;5064984;28;20048;-64
2023/06/06 11:33:00;;;;;;;6.28;4.55;;;20.90;60.80;;;;;;5066160;28;20083;-67
2023/06/06 11:35:32;;;;;;;8.18;5.15;;;20.90;60.90;;;;;;5062324;28;20044;-69
2023/06/06 11:38:01;;;;;;;6.28;4.78;;;21.00;60.90;;;;;;5064706;28;20044;-67
2023/06/06 11:40:29;;;;;;;7.10;4.68;;;21.00;61.00;;;;;;5064613;28;20094;-66
2023/06/06 11:42:57;;;;;;;7.80;4.95;;;21.00;61.30;;;;;;5063805;28;20055;-66
2023/06/06 11:45:27;;;;;;;7.20;5.30;;;21.00;61.00;;;;;;5066657;28;20464;-66
2023/06/06 11:47:54;;;;;;;7.90;5.10;;;21.00;61.30;;;;;;5063408;28;21656;-67
2023/06/06 11:50:29;;;;;;;7.10;5.95;;;21.10;61.20;;;;;;5065387;28;20053;-66
2023/06/06 11:52:57;;;;;;;6.65;4.88;;;21.10;60.20;;;;;;5067316;28;20053;-68
2023/06/06 11:55:38;;;;;;;5.65;4.90;;;21.10;60.20;;;;;;5061657;28;20448;-66
2023/06/06 11:58:05;;;;;;;5.50;4.57;;;21.10;60.50;;;;;;5062596;28;20060;-67
2023/06/06 12:00:33;;;;;;;5.72;5.13;;;21.10;60.90;;;;;;5065480;28;20040;-66
2023/06/06 12:03:01;;;;;;;5.80;5.05;;;21.10;60.80;;;;;;5063709;28;20048;-67
2023/06/06 12:05:30;;;;;;;5.32;4.82;;;21.10;60.80;;;;;;5069719;28;20101;-69
2023/06/06 12:07:59;;;;;;;8.13;4.90;;;21.10;60.90;;;;;;5069737;28;20503;-65
2023/06/06 12:10:29;;;;;;;9.45;5.22;;;21.00;60.40;;;;;;5072623;28;20133;-67
2023/06/06 12:12:56;;;;;;;9.75;5.35;;;21.00;60.90;;;;;;5068687;28;20106;-66
2023/06/06 12:15:44;;;;;;;6.50;5.40;;;21.00;61.60;;;;;;5073307;28;20381;-71
2023/06/06 12:18:13;;;;;;;7.47;4.90;;;21.10;61.90;;;;;;5067852;28;20048;-69
2023/06/06 12:20:43;;;;;;;6.25;4.88;;;21.10;61.00;;;;;;5067556;28;20048;-65
2023/06/06 12:23:10;;;;;;;7.22;5.90;;;21.10;60.90;;;;;;5069291;28;20043;-68
2023/06/06 12:25:37;;;;;;;9.43;5.28;;;21.10;61.30;;;;;;5069810;28;20102;-67
2023/06/06 12:28:09;;;;;;;8.68;5.57;;;21.00;61.70;;;;;;5065121;28;20135;-66
2023/06/06 12:30:38;;;;;;;9.23;6.18;;;21.00;61.50;;;;;;5067713;28;20051;-66
2023/06/06 12:33:06;;;;;;;6.03;5.43;;;20.90;61.70;;;;;;5065964;28;20142;-66
2023/06/06 12:35:34;;;;;;;9.40;5.10;;;20.90;62.60;;;;;;5065372;28;20052;-66
2023/06/06 12:38:01;;;;;;;6.68;5.50;;;20.90;62.60;;;;;;5068642;28;20511;-66
2023/06/06 12:40:37;;;;;;;6.25;5.28;;;20.90;63.00;;;;;;5053105;28;20051;-65
2023/06/06 12:43:06;;;;;;;7.10;5.85;;;20.90;63.00;;;;;;5068285;28;20114;-65
2023/06/06 12:45:37;;;;;;;6.80;5.65;;;20.90;62.80;;;;;;5067331;28;20048;-66
2023/06/06 12:48:05;;;;;;;6.53;5.55;;;20.90;63.40;;;;;;5068927;28;20055;-66
2023/06/06 12:50:33;;;;;;;8.10;5.18;;;20.90;62.50;;;;;;5071235;28;20060;-65
2023/06/06 12:53:02;;;;;;;6.40;5.47;;;20.90;62.60;;;;;;5067437;28;20072;-64
2023/06/06 12:55:30;;;;;;;6.00;5.30;;;20.90;63.00;;;;;;5069350;28;20100;-64
2023/06/06 12:57:58;;;;;;;5.85;5.20;;;20.80;63.10;;;;;;5065222;28;20301;-66
2023/06/06 13:00:26;;;;;;;5.93;4.45;;;20.70;63.20;;;;;;5070050;28;20076;-67